createdAt,value
2022-08-21T00:01:40.060Z,23.01
2022-08-21T00:04:07.701Z,22.98
2022-08-21T00:06:34.799Z,22.96
2022-08-21T00:09:06.245Z,22.92
2022-08-21T00:11:33.329Z,22.86
2022-08-21T00:14:00.031Z,22.81
2022-08-21T00:16:26.597Z,22.74
2022-08-21T00:18:53.207Z,22.73
2022-08-21T00:21:19.745Z,22.73
2022-08-21T00:23:46.291Z,22.72
2022-08-21T00:26:12.897Z,22.69
2022-08-21T00:28:39.479Z,22.67
2022-08-21T00:31:06.425Z,22.66
2022-08-21T00:33:33.545Z,22.65
2022-08-21T00:36:01.818Z,22.60
2022-08-21T00:38:28.359Z,22.59
2022-08-21T00:40:56.684Z,22.58
2022-08-21T00:43:25.332Z,22.55
2022-08-21T00:45:52.090Z,22.53
2022-08-21T00:48:18.684Z,22.50
2022-08-21T00:50:49.670Z,22.47
2022-08-21T00:53:16.261Z,22.41
2022-08-21T00:55:42.905Z,22.37
2022-08-21T00:58:11.212Z,22.33
2022-08-21T01:00:39.529Z,22.30
2022-08-21T01:03:09.060Z,22.30
2022-08-21T01:05:35.976Z,22.28
2022-08-21T01:08:02.702Z,22.30
2022-08-21T01:10:30.044Z,22.24
2022-08-21T01:12:58.261Z,22.23
2022-08-21T01:15:28.028Z,22.21
2022-08-21T01:17:55.660Z,22.16
2022-08-21T01:20:22.411Z,22.14
2022-08-21T01:22:59.395Z,22.11
2022-08-21T01:25:26.195Z,22.08
2022-08-21T01:27:52.781Z,22.05
2022-08-21T01:30:23.194Z,22.02
2022-08-21T01:32:50.275Z,22.02
2022-08-21T01:35:17.666Z,21.99
2022-08-21T01:37:44.821Z,21.97
2022-08-21T01:40:12.004Z,21.89
2022-08-21T01:42:38.863Z,21.88
2022-08-21T01:45:06.517Z,21.89
2022-08-21T01:47:33.702Z,21.88
2022-08-21T01:50:00.385Z,21.85
2022-08-21T01:52:27.566Z,21.81
2022-08-21T01:54:55.687Z,21.76
2022-08-21T01:57:22.748Z,21.72
2022-08-21T01:59:53.224Z,21.72
2022-08-21T02:02:20.084Z,21.69
2022-08-21T02:04:46.667Z,21.66
2022-08-21T02:07:13.376Z,21.67
2022-08-21T02:09:40.374Z,21.66
2022-08-21T02:12:07.069Z,21.62
2022-08-21T02:14:33.737Z,21.52
2022-08-21T02:17:05.229Z,21.42
2022-08-21T02:19:40.205Z,21.40
2022-08-21T02:22:11.112Z,21.41
2022-08-21T02:24:38.474Z,21.44
2022-08-21T02:27:26.094Z,21.37
2022-08-21T02:29:53.780Z,21.34
2022-08-21T02:32:20.838Z,21.33
2022-08-21T02:34:47.413Z,21.34
2022-08-21T02:37:14.003Z,21.36
2022-08-21T02:39:40.815Z,21.33
2022-08-21T02:42:07.561Z,21.34
2022-08-21T02:44:34.728Z,21.29
2022-08-21T02:47:01.752Z,21.24
2022-08-21T02:49:28.306Z,21.21
2022-08-21T02:51:54.859Z,21.20
2022-08-21T02:54:21.481Z,21.23
2022-08-21T02:56:48.016Z,21.27
2022-08-21T02:59:14.706Z,21.27
2022-08-21T03:01:41.285Z,21.24
2022-08-21T03:04:08.065Z,21.22
2022-08-21T03:06:34.824Z,21.19
2022-08-21T03:09:01.738Z,21.19
2022-08-21T03:11:28.389Z,21.18
2022-08-21T03:13:54.982Z,21.12
2022-08-21T03:16:21.762Z,21.12
2022-08-21T03:18:48.658Z,21.09
2022-08-21T03:21:15.265Z,21.05
2022-08-21T03:23:43.014Z,21.01
2022-08-21T03:26:11.908Z,20.98
2022-08-21T03:28:39.016Z,20.96
2022-08-21T03:31:06.733Z,20.96
2022-08-21T03:33:33.555Z,20.96
2022-08-21T03:36:05.500Z,20.93
2022-08-21T03:38:32.982Z,20.87
2022-08-21T03:41:00.267Z,20.83
2022-08-21T03:43:27.629Z,20.80
2022-08-21T03:45:57.924Z,20.77
2022-08-21T03:48:24.543Z,20.73
2022-08-21T03:50:52.985Z,20.69
2022-08-21T03:53:19.815Z,20.67
2022-08-21T03:55:47.745Z,20.67
2022-08-21T03:58:15.998Z,20.74
2022-08-21T04:00:44.902Z,20.73
2022-08-21T04:03:11.450Z,20.70
2022-08-21T04:05:38.468Z,20.68
2022-08-21T04:08:06.449Z,20.63
2022-08-21T04:10:35.337Z,20.64
2022-08-21T04:13:02.364Z,20.62
2022-08-21T04:15:29.323Z,20.59
2022-08-21T04:17:56.045Z,20.60
2022-08-21T04:20:22.894Z,20.59
2022-08-21T04:22:51.395Z,20.54
2022-08-21T04:25:20.015Z,20.50
2022-08-21T04:27:46.754Z,20.51
2022-08-21T04:30:14.419Z,20.47
2022-08-21T04:32:44.169Z,20.46
2022-08-21T04:35:11.411Z,20.46
2022-08-21T04:37:41.617Z,20.47
2022-08-21T04:40:10.466Z,20.48
2022-08-21T04:42:42.633Z,20.44
2022-08-21T04:45:09.272Z,20.35
2022-08-21T04:47:41.684Z,20.35
2022-08-21T04:50:19.245Z,20.33
2022-08-21T04:53:03.842Z,20.26
2022-08-21T04:55:30.463Z,20.18
2022-08-21T04:57:58.024Z,20.26
2022-08-21T05:00:25.751Z,20.32
2022-08-21T05:02:57.305Z,20.42
2022-08-21T05:05:24.237Z,20.46
2022-08-21T05:07:51.119Z,20.42
2022-08-21T05:10:17.776Z,20.32
2022-08-21T05:12:44.781Z,20.18
2022-08-21T05:15:13.608Z,20.19
2022-08-21T05:17:41.100Z,20.32
2022-08-21T05:20:08.056Z,20.40
2022-08-21T05:22:34.581Z,20.38
2022-08-21T05:25:01.125Z,20.37
2022-08-21T05:27:30.573Z,20.37
2022-08-21T05:29:58.420Z,20.36
2022-08-21T05:32:25.097Z,20.37
2022-08-21T05:34:51.712Z,20.50
2022-08-21T05:37:18.210Z,20.58
2022-08-21T05:40:21.906Z,20.62
2022-08-21T05:42:31.548Z,20.63
2022-08-21T05:44:58.128Z,20.61
2022-08-21T05:47:25.772Z,20.65
2022-08-21T05:49:52.280Z,20.59
2022-08-21T05:52:22.181Z,20.56
2022-08-21T05:54:48.802Z,20.63
2022-08-21T05:57:15.491Z,20.73
2022-08-21T05:59:42.190Z,20.81
2022-08-21T06:02:12.188Z,20.86
2022-08-21T06:04:39.528Z,20.81
2022-08-21T06:07:06.427Z,20.82
2022-08-21T06:09:33.546Z,20.80
2022-08-21T06:12:03.815Z,20.76
2022-08-21T06:14:30.463Z,20.81
2022-08-21T06:17:02.416Z,20.91
2022-08-21T06:19:29.512Z,20.98
2022-08-21T06:21:55.994Z,21.03
2022-08-21T06:24:22.506Z,21.02
2022-08-21T06:26:49.019Z,21.08
2022-08-21T06:29:18.197Z,21.12
2022-08-21T06:31:48.968Z,21.42
2022-08-21T06:34:15.911Z,21.52
2022-08-21T06:36:43.842Z,21.40
2022-08-21T06:39:16.279Z,21.40
2022-08-21T06:41:51.428Z,21.39
2022-08-21T06:44:18.851Z,21.40
2022-08-21T06:46:46.524Z,21.52
2022-08-21T06:49:21.548Z,21.65
2022-08-21T06:51:48.635Z,22.03
2022-08-21T06:54:15.172Z,23.55
2022-08-21T06:56:41.856Z,24.48
2022-08-21T06:59:08.551Z,25.27
2022-08-21T07:01:35.309Z,24.97
2022-08-21T07:04:01.938Z,24.76
2022-08-21T07:06:28.560Z,24.21
2022-08-21T07:08:55.669Z,23.75
2022-08-21T07:11:26.262Z,23.35
2022-08-21T07:13:54.196Z,23.09
2022-08-21T07:16:21.385Z,23.17
2022-08-21T07:18:48.238Z,23.51
2022-08-21T07:21:16.112Z,23.53
2022-08-21T07:23:44.897Z,23.45
2022-08-21T07:26:12.354Z,23.27
2022-08-21T07:28:39.036Z,23.15
2022-08-21T07:31:06.428Z,23.02
2022-08-21T07:33:34.471Z,22.96
2022-08-21T07:36:01.137Z,23.04
2022-08-21T07:38:28.055Z,23.12
2022-08-21T07:40:56.467Z,23.18
2022-08-21T07:43:23.467Z,23.16
2022-08-21T07:45:54.262Z,23.07
2022-08-21T07:48:21.433Z,22.97
2022-08-21T07:50:48.459Z,23.08
2022-08-21T07:53:15.407Z,23.23
2022-08-21T07:55:42.177Z,23.40
2022-08-21T07:58:08.775Z,23.52
2022-08-21T08:00:35.737Z,23.61
2022-08-21T08:03:03.640Z,23.66
2022-08-21T08:05:31.130Z,23.64
2022-08-21T08:07:57.711Z,23.73
2022-08-21T08:10:25.339Z,23.85
2022-08-21T08:12:52.803Z,23.98
2022-08-21T08:15:22.393Z,24.11
2022-08-21T08:17:49.341Z,24.23
2022-08-21T08:20:16.716Z,24.28
2022-08-21T08:22:43.951Z,24.35
2022-08-21T08:25:18.118Z,24.43
2022-08-21T08:27:44.733Z,24.55
2022-08-21T08:30:12.786Z,24.83
2022-08-21T08:32:39.968Z,25.48
2022-08-21T08:35:07.138Z,28.85
2022-08-21T08:37:34.826Z,33.67
2022-08-21T08:40:03.509Z,37.28
2022-08-21T08:42:34.678Z,40.09
2022-08-21T08:45:06.094Z,42.22
2022-08-21T08:47:35.621Z,43.83
2022-08-21T08:50:05.635Z,45.06
2022-08-21T08:52:34.423Z,45.52
2022-08-21T08:55:09.655Z,46.55
2022-08-21T08:57:37.337Z,47.60
2022-08-21T09:00:10.182Z,48.26
2022-08-21T09:02:39.168Z,48.59
2022-08-21T09:05:06.385Z,49.26
2022-08-21T09:07:33.019Z,49.52
2022-08-21T09:10:09.390Z,49.16
2022-08-21T09:12:40.395Z,49.72
2022-08-21T09:15:07.443Z,50.45
2022-08-21T09:17:40.186Z,51.13
2022-08-21T09:20:15.463Z,51.50
2022-08-21T09:22:45.184Z,52.09
2022-08-21T09:25:26.755Z,52.25
2022-08-21T09:27:53.644Z,52.39
2022-08-21T09:30:24.495Z,52.79
2022-08-21T09:32:51.153Z,53.24
2022-08-21T09:35:20.920Z,53.46
2022-08-21T09:37:49.467Z,53.45
2022-08-21T09:40:22.366Z,53.40
2022-08-21T09:42:57.303Z,53.64
2022-08-21T09:45:24.097Z,53.83
2022-08-21T09:47:50.759Z,54.27
2022-08-21T09:50:19.550Z,54.44
2022-08-21T09:53:04.400Z,55.12
2022-08-21T09:55:49.641Z,55.07
2022-08-21T09:58:17.033Z,54.13
2022-08-21T10:00:43.751Z,53.81
2022-08-21T10:03:15.737Z,54.26
2022-08-21T10:05:52.102Z,54.79
2022-08-21T10:08:22.948Z,54.94
2022-08-21T10:10:56.534Z,55.48
2022-08-21T10:13:30.589Z,55.82
2022-08-21T10:16:17.595Z,56.02
2022-08-21T10:18:51.076Z,55.98
2022-08-21T10:21:27.280Z,56.08
2022-08-21T10:23:53.841Z,55.99
2022-08-21T10:26:30.320Z,56.05
2022-08-21T10:28:56.841Z,56.34
2022-08-21T10:31:34.135Z,55.80
2022-08-21T10:34:00.645Z,53.49
2022-08-21T10:36:34.813Z,53.37
2022-08-21T10:39:26.549Z,53.56
2022-08-21T10:42:11.380Z,52.52
2022-08-21T10:44:47.889Z,53.90
2022-08-21T10:47:23.632Z,55.37
2022-08-21T10:49:59.285Z,55.38
2022-08-21T10:52:48.829Z,56.18
2022-08-21T10:55:18.237Z,57.33
2022-08-21T10:57:48.569Z,57.27
2022-08-21T11:00:20.499Z,56.92
2022-08-21T11:02:54.744Z,56.98
2022-08-21T11:05:39.693Z,57.05
2022-08-21T11:08:12.521Z,57.26
2022-08-21T11:10:40.895Z,57.08
2022-08-21T11:13:20.980Z,57.03
2022-08-21T11:15:57.206Z,56.53
2022-08-21T11:18:33.250Z,56.89
2022-08-21T11:21:18.801Z,56.03
2022-08-21T11:23:48.337Z,55.54
2022-08-21T11:26:25.773Z,55.55
2022-08-21T11:28:55.789Z,54.85
2022-08-21T11:31:22.293Z,55.17
2022-08-21T11:34:07.583Z,55.72
2022-08-21T11:36:43.066Z,55.23
2022-08-21T11:39:21.128Z,54.90
2022-08-21T11:42:00.600Z,55.02
2022-08-21T11:44:46.006Z,55.11
2022-08-21T11:47:24.711Z,54.93
2022-08-21T11:50:03.488Z,54.57
2022-08-21T11:52:32.728Z,54.20
2022-08-21T11:55:04.216Z,53.57
2022-08-21T11:57:34.967Z,53.91
2022-08-21T12:00:20.130Z,53.97
2022-08-21T12:02:50.738Z,53.61
2022-08-21T12:05:43.715Z,53.67
2022-08-21T12:08:10.255Z,53.49
2022-08-21T12:10:40.887Z,53.34
2022-08-21T12:13:09.365Z,53.02
2022-08-21T12:15:36.181Z,52.07
2022-08-21T12:18:04.704Z,51.59
2022-08-21T12:20:50.576Z,51.03
2022-08-21T12:23:19.467Z,47.69
2022-08-21T12:25:48.345Z,45.58
2022-08-21T12:28:23.993Z,43.57
2022-08-21T12:30:53.857Z,41.26
2022-08-21T12:33:27.119Z,39.68
2022-08-21T12:36:02.266Z,38.79
2022-08-21T12:38:30.200Z,38.23
2022-08-21T12:40:58.360Z,37.21
2022-08-21T12:43:36.872Z,36.45
2022-08-21T12:46:05.575Z,36.06
2022-08-21T12:48:32.115Z,35.87
2022-08-21T12:51:13.315Z,35.70
2022-08-21T12:53:42.906Z,35.41
2022-08-21T12:56:10.311Z,35.09
2022-08-21T12:58:37.455Z,34.99
2022-08-21T13:01:06.861Z,34.88
2022-08-21T13:03:36.324Z,34.76
2022-08-21T13:06:04.962Z,34.70
2022-08-21T13:08:36.417Z,34.42
2022-08-21T13:11:09.019Z,34.30
2022-08-21T13:13:45.720Z,34.31
2022-08-21T13:16:14.416Z,34.13
2022-08-21T13:18:53.245Z,34.01
2022-08-21T13:21:22.048Z,33.81
2022-08-21T13:23:49.079Z,33.74
2022-08-21T13:26:18.835Z,33.58
2022-08-21T13:28:48.300Z,33.68
2022-08-21T13:31:19.011Z,33.85
2022-08-21T13:33:45.767Z,33.95
2022-08-21T13:36:18.432Z,34.30
2022-08-21T13:38:46.111Z,34.60
2022-08-21T13:41:30.251Z,34.69
2022-08-21T13:44:01.308Z,34.56
2022-08-21T13:46:30.595Z,34.46
2022-08-21T13:48:57.439Z,34.44
2022-08-21T13:51:24.037Z,34.24
2022-08-21T13:53:55.805Z,34.07
2022-08-21T13:56:27.574Z,33.92
2022-08-21T13:58:55.698Z,34.00
2022-08-21T14:01:34.038Z,33.90
2022-08-21T14:04:03.554Z,33.67
2022-08-21T14:06:34.462Z,33.82
2022-08-21T14:09:02.531Z,33.93
2022-08-21T14:11:34.348Z,33.92
2022-08-21T14:14:07.622Z,33.77
2022-08-21T14:16:47.891Z,33.87
2022-08-21T14:19:20.430Z,33.90
2022-08-21T14:21:47.736Z,33.80
2022-08-21T14:24:25.232Z,33.85
2022-08-21T14:27:08.754Z,33.75
2022-08-21T14:29:40.075Z,33.50
2022-08-21T14:32:21.465Z,33.62
2022-08-21T14:34:48.681Z,33.53
2022-08-21T14:37:15.306Z,33.48
2022-08-21T14:39:45.116Z,33.38
2022-08-21T14:42:12.924Z,33.17
2022-08-21T14:44:39.821Z,33.16
2022-08-21T14:47:06.432Z,33.26
2022-08-21T14:49:33.046Z,33.23
2022-08-21T14:51:59.684Z,33.12
2022-08-21T14:54:30.695Z,33.09
2022-08-21T14:57:09.778Z,33.01
2022-08-21T14:59:36.969Z,32.70
2022-08-21T15:02:05.380Z,32.53
2022-08-21T15:04:32.987Z,32.60
2022-08-21T15:06:59.628Z,32.64
2022-08-21T15:09:26.238Z,32.74
2022-08-21T15:11:53.410Z,32.73
2022-08-21T15:14:22.007Z,32.44
2022-08-21T15:16:49.479Z,32.50
2022-08-21T15:19:16.289Z,32.64
2022-08-21T15:21:42.921Z,32.78
2022-08-21T15:24:09.785Z,32.92
2022-08-21T15:26:37.251Z,32.78
2022-08-21T15:29:06.683Z,32.61
2022-08-21T15:31:33.655Z,32.60
2022-08-21T15:34:00.197Z,32.55
2022-08-21T15:36:26.915Z,32.42
2022-08-21T15:38:53.569Z,32.46
2022-08-21T15:41:20.225Z,32.50
2022-08-21T15:43:48.715Z,32.49
2022-08-21T15:46:16.103Z,32.46
2022-08-21T15:48:42.655Z,32.50
2022-08-21T15:51:10.594Z,32.54
2022-08-21T15:53:39.581Z,32.48
2022-08-21T15:56:07.207Z,32.28
2022-08-21T15:58:33.790Z,32.32
2022-08-21T16:01:00.906Z,32.34
2022-08-21T16:03:27.603Z,32.22
2022-08-21T16:05:56.546Z,32.10
2022-08-21T16:08:23.313Z,31.98
2022-08-21T16:10:50.129Z,31.89
2022-08-21T16:13:23.658Z,31.88
2022-08-21T16:15:50.781Z,31.83
2022-08-21T16:18:18.818Z,31.66
2022-08-21T16:20:45.533Z,31.56
2022-08-21T16:23:13.292Z,31.57
2022-08-21T16:25:40.167Z,31.54
2022-08-21T16:28:09.369Z,31.45
2022-08-21T16:30:38.733Z,31.33
2022-08-21T16:33:06.485Z,31.16
2022-08-21T16:35:33.479Z,31.13
2022-08-21T16:38:00.145Z,31.04
2022-08-21T16:40:29.681Z,30.97
2022-08-21T16:42:56.380Z,30.93
2022-08-21T16:45:22.955Z,30.83
2022-08-21T16:47:49.979Z,30.76
2022-08-21T16:50:19.393Z,30.47
2022-08-21T16:52:45.990Z,30.37
2022-08-21T16:55:12.529Z,30.30
2022-08-21T16:57:39.194Z,30.32
2022-08-21T17:00:10.011Z,30.21
2022-08-21T17:02:37.666Z,30.08
2022-08-21T17:05:06.511Z,29.91
2022-08-21T17:07:41.184Z,29.88
2022-08-21T17:10:09.086Z,29.82
2022-08-21T17:12:36.315Z,29.78
2022-08-21T17:15:07.401Z,29.75
2022-08-21T17:17:35.058Z,29.67
2022-08-21T17:20:02.088Z,29.63
2022-08-21T17:22:28.785Z,29.57
2022-08-21T17:24:55.332Z,29.54
2022-08-21T17:27:26.696Z,29.50
2022-08-21T17:29:55.251Z,29.46
2022-08-21T17:32:21.986Z,29.40
2022-08-21T17:34:48.561Z,29.33
2022-08-21T17:37:15.343Z,29.29
2022-08-21T17:39:42.072Z,29.23
2022-08-21T17:42:10.271Z,29.18
2022-08-21T17:44:41.554Z,29.15
2022-08-21T17:47:08.821Z,29.11
2022-08-21T17:49:35.414Z,29.05
2022-08-21T17:52:02.049Z,28.97
2022-08-21T17:54:28.638Z,28.87
2022-08-21T17:56:55.877Z,28.82
2022-08-21T17:59:23.049Z,28.79
2022-08-21T18:01:50.232Z,28.73
2022-08-21T18:04:17.491Z,28.65
2022-08-21T18:06:44.529Z,28.57
2022-08-21T18:09:12.707Z,28.51
2022-08-21T18:11:40.146Z,28.46
2022-08-21T18:14:07.974Z,28.42
2022-08-21T18:16:35.474Z,28.39
2022-08-21T18:19:02.572Z,28.34
2022-08-21T18:21:29.833Z,28.29
2022-08-21T18:23:56.558Z,28.26
2022-08-21T18:26:34.885Z,28.21
2022-08-21T18:29:01.828Z,28.19
2022-08-21T18:31:29.991Z,28.16
2022-08-21T18:33:57.961Z,28.10
2022-08-21T18:36:26.009Z,28.08
2022-08-21T18:38:52.802Z,28.06
2022-08-21T18:41:22.681Z,28.04
2022-08-21T18:43:49.711Z,28.00
2022-08-21T18:46:19.755Z,28.00
2022-08-21T18:48:47.759Z,27.98
2022-08-21T18:51:14.546Z,27.95
2022-08-21T18:53:41.075Z,27.93
2022-08-21T18:56:15.924Z,27.91
2022-08-21T18:58:44.289Z,27.88
2022-08-21T19:01:11.025Z,27.87
2022-08-21T19:03:38.098Z,27.83
2022-08-21T19:06:04.689Z,27.81
2022-08-21T19:08:36.259Z,27.76
2022-08-21T19:11:02.976Z,27.71
2022-08-21T19:13:31.807Z,27.67
2022-08-21T19:16:02.877Z,27.63
2022-08-21T19:18:30.597Z,27.56
2022-08-21T19:20:57.653Z,27.49
2022-08-21T19:23:29.464Z,27.39
2022-08-21T19:26:00.497Z,27.38
2022-08-21T19:28:52.586Z,27.35
2022-08-21T19:31:25.159Z,27.31
2022-08-21T19:33:57.567Z,27.26
2022-08-21T19:36:28.072Z,27.26
2022-08-21T19:38:54.607Z,27.26
2022-08-21T19:41:22.871Z,27.25
2022-08-21T19:43:53.168Z,27.20
2022-08-21T19:46:23.094Z,27.18
2022-08-21T19:48:49.994Z,27.17
2022-08-21T19:51:16.639Z,27.15
2022-08-21T19:53:43.373Z,27.10
2022-08-21T19:56:12.712Z,27.09
2022-08-21T19:58:40.111Z,27.07
2022-08-21T20:01:11.467Z,27.00
2022-08-21T20:03:43.556Z,26.96
2022-08-21T20:06:10.821Z,26.92
2022-08-21T20:08:37.878Z,26.86
2022-08-21T20:11:04.911Z,26.83
2022-08-21T20:13:33.685Z,26.77
2022-08-21T20:16:01.225Z,26.76
2022-08-21T20:18:28.293Z,26.72
2022-08-21T20:20:55.901Z,26.70
2022-08-21T20:23:27.885Z,26.65
2022-08-21T20:25:57.913Z,26.58
2022-08-21T20:28:24.577Z,26.40
2022-08-21T20:30:52.740Z,26.37
2022-08-21T20:33:19.263Z,26.37
2022-08-21T20:35:48.602Z,26.38
2022-08-21T20:38:15.542Z,26.33
2022-08-21T20:40:43.603Z,26.33
2022-08-21T20:43:12.697Z,26.34
2022-08-21T20:45:40.543Z,26.35
2022-08-21T20:48:12.208Z,26.29
2022-08-21T20:50:44.561Z,26.22
2022-08-21T20:53:23.521Z,26.16
2022-08-21T20:55:51.121Z,26.12
2022-08-21T20:58:38.485Z,26.07
2022-08-21T21:01:07.476Z,26.02
2022-08-21T21:03:37.399Z,26.00
2022-08-21T21:06:07.903Z,25.96
2022-08-21T21:08:41.859Z,25.88
2022-08-21T21:11:17.102Z,25.81
2022-08-21T21:13:48.072Z,25.84
2022-08-21T21:16:20.613Z,25.87
2022-08-21T21:18:50.112Z,25.84
2022-08-21T21:21:33.293Z,25.82
2022-08-21T21:24:05.471Z,25.78
2022-08-21T21:26:46.139Z,25.64
2022-08-21T21:32:18.001Z,25.63
2022-08-21T21:34:46.394Z,25.62
2022-08-21T21:37:25.346Z,25.65
2022-08-21T21:39:55.073Z,25.67
2022-08-21T21:45:23.506Z,25.66
2022-08-21T21:48:01.016Z,25.61
2022-08-21T21:50:36.917Z,25.53
2022-08-21T21:53:20.829Z,25.40
2022-08-21T21:55:56.475Z,25.30
2022-08-21T21:58:24.240Z,25.27
2022-08-21T22:01:00.086Z,25.19
2022-08-21T22:03:31.508Z,25.09
2022-08-21T22:06:10.064Z,25.02
2022-08-21T22:08:36.912Z,24.96
2022-08-21T22:11:28.618Z,24.87
2022-08-21T22:14:15.976Z,24.81
2022-08-21T22:16:46.713Z,24.75
2022-08-21T22:19:22.052Z,24.76
2022-08-21T22:22:00.604Z,24.77
2022-08-21T22:24:33.254Z,24.72
2022-08-21T22:27:02.693Z,24.68
2022-08-21T22:29:41.851Z,24.63
2022-08-21T22:32:10.068Z,24.57
2022-08-21T22:34:37.079Z,24.53
2022-08-21T22:37:07.467Z,24.49
2022-08-21T22:39:39.754Z,24.46
2022-08-21T22:42:27.451Z,24.40
2022-08-21T22:44:59.459Z,24.37
2022-08-21T22:47:38.312Z,24.37
2022-08-21T22:50:06.837Z,24.33
2022-08-21T22:52:35.965Z,24.35
2022-08-21T22:55:17.921Z,24.38
2022-08-21T22:58:04.303Z,24.35
2022-08-21T23:00:36.510Z,24.35
2022-08-21T23:03:03.606Z,24.34
2022-08-21T23:05:30.708Z,24.29
2022-08-21T23:08:16.146Z,24.22
2022-08-21T23:10:56.411Z,24.17
2022-08-21T23:13:23.022Z,24.17
2022-08-21T23:15:55.756Z,24.14
2022-08-21T23:18:25.498Z,24.07
2022-08-21T23:21:01.084Z,24.03
2022-08-21T23:23:31.137Z,24.05
2022-08-21T23:26:22.764Z,24.08
2022-08-21T23:28:59.377Z,24.10
2022-08-21T23:31:35.157Z,24.09
2022-08-21T23:34:29.659Z,24.10
2022-08-21T23:37:17.811Z,24.11
2022-08-21T23:40:08.626Z,24.11
2022-08-21T23:42:50.524Z,24.13
2022-08-21T23:45:32.851Z,24.13
2022-08-21T23:48:29.665Z,24.11
2022-08-21T23:50:59.521Z,24.14
2022-08-21T23:53:33.800Z,24.19
2022-08-21T23:56:12.714Z,24.21
2022-08-21T23:58:42.198Z,24.20
